Time;durP1;ratioP1;P1;durP2;ratioP2;P2;SDS_P1;SDS_P2;PMS_P1;PMS_P2;Temp;Humidity;BMP_temperature;BMP_pressure;BME280_temperature;BME280_humidity;BME280_pressure;Samples;Min_cycle;Max_cycle;Signal;HPM_P1;HPM_P2
2022/12/26 00:01:40;;;;;;;4.07;2.00;;;;;;;13.57;64.09;98676.53;4956529;28;20297;-60
2022/12/26 00:04:07;;;;;;;3.60;1.90;;;;;;;13.54;64.12;98676.06;4954339;28;20716;-60
2022/12/26 00:06:35;;;;;;;2.67;1.80;;;;;;;13.52;64.47;98691.16;4957756;28;20285;-59
2022/12/26 00:09:05;;;;;;;4.40;2.10;;;;;;;13.54;64.12;98686.56;4953751;28;20291;-60
2022/12/26 00:11:32;;;;;;;2.43;2.10;;;;;;;13.57;63.84;98681.78;4955390;28;20294;-59
2022/12/26 00:14:00;;;;;;;4.17;2.17;;;;;;;13.54;64.93;98686.56;4953328;28;20230;-59
2022/12/26 00:16:28;;;;;;;4.53;2.10;;;;;;;13.54;64.20;98673.44;4957305;28;20294;-59
2022/12/26 00:18:55;;;;;;;3.20;1.90;;;;;;;13.56;63.96;98671.47;4952876;28;20240;-59
2022/12/26 00:21:25;;;;;;;2.30;1.63;;;;;;;13.60;63.54;98678.00;4953935;28;20233;-59
2022/12/26 00:23:55;;;;;;;4.73;2.00;;;;;;;13.67;63.45;98702.56;4950831;28;20255;-59
2022/12/26 00:26:23;;;;;;;2.40;2.20;;;;;;;13.65;63.79;98709.78;4954054;28;20222;-60
2022/12/26 00:28:50;;;;;;;3.00;2.10;;;;;;;13.54;63.91;98694.41;4956612;28;20663;-59
2022/12/26 00:31:19;;;;;;;3.73;2.00;;;;;;;13.60;63.63;98695.53;4956833;28;20599;-59
2022/12/26 00:33:46;;;;;;;3.50;2.20;;;;;;;13.52;64.61;98681.47;4953657;28;20231;-60
2022/12/26 00:36:15;;;;;;;2.93;1.90;;;;;;;13.49;64.33;98694.09;4956181;28;20233;-59
2022/12/26 00:38:43;;;;;;;2.97;2.10;;;;;;;13.45;64.86;98693.59;4951670;28;20240;-61
2022/12/26 00:41:12;;;;;;;3.27;2.33;;;;;;;13.41;64.54;98693.13;4958943;28;20334;-60
2022/12/26 00:43:39;;;;;;;3.37;1.90;;;;;;;13.43;64.76;98685.91;4953492;28;20234;-58
2022/12/26 00:46:06;;;;;;;2.80;1.90;;;;;;;13.45;64.64;98703.28;4953223;28;20728;-60
2022/12/26 00:48:35;;;;;;;4.27;2.23;;;;;;;13.34;65.47;98684.25;4956037;28;20241;-60
2022/12/26 00:51:03;;;;;;;3.83;2.27;;;;;;;13.25;65.80;98693.13;4953049;28;20238;-59
2022/12/26 00:53:29;;;;;;;2.77;1.93;;;;;;;13.27;65.64;98688.53;4957874;28;20298;-60
2022/12/26 00:55:56;;;;;;;2.97;1.87;;;;;;;13.28;65.01;98677.88;4953981;28;20241;-59
2022/12/26 00:58:24;;;;;;;5.30;2.10;;;;;;;13.28;65.93;98671.81;4958463;28;20238;-60
2022/12/26 01:00:53;;;;;;;4.83;2.10;;;;;;;13.28;65.30;98669.19;4951699;28;20320;-59
2022/12/26 01:03:20;;;;;;;4.17;1.77;;;;;;;13.30;66.06;98669.84;4952378;28;20329;-59
2022/12/26 01:05:49;;;;;;;2.73;2.00;;;;;;;13.37;65.02;98662.97;4953309;28;20234;-60
2022/12/26 01:08:16;;;;;;;3.73;1.80;;;;;;;13.34;65.55;98657.22;4951899;28;20752;-59
2022/12/26 01:10:45;;;;;;;3.63;2.23;;;;;;;13.25;65.75;98661.69;4954657;28;20300;-60
2022/12/26 01:13:11;;;;;;;8.43;2.23;;;;;;;13.31;64.75;98655.75;4952663;28;20256;-60
2022/12/26 01:15:39;;;;;;;4.77;1.90;;;;;;;13.26;65.55;98660.69;4951490;28;20239;-59
2022/12/26 01:18:06;;;;;;;2.60;1.67;;;;;;;13.23;66.03;98650.53;4951842;28;20240;-59
2022/12/26 01:20:33;;;;;;;3.50;2.10;;;;;;;13.26;65.34;98660.69;4953017;28;20291;-59
2022/12/26 01:22:59;;;;;;;3.90;1.87;;;;;;;13.22;65.58;98672.50;4951249;28;20233;-58
2022/12/26 01:25:26;;;;;;;3.63;2.20;;;;;;;13.25;65.77;98677.41;4955982;28;20241;-61
2022/12/26 01:27:52;;;;;;;2.77;2.00;;;;;;;13.39;64.71;98687.22;4950188;28;20238;-60
2022/12/26 01:30:19;;;;;;;3.20;1.73;;;;;;;13.51;63.31;98673.78;4971485;28;20237;-59
2022/12/26 01:32:47;;;;;;;3.17;2.10;;;;;;;13.65;62.73;98672.25;4951340;28;20235;-59
2022/12/26 01:35:14;;;;;;;2.20;1.80;;;;;;;13.64;63.79;98688.97;4954714;28;20245;-60
2022/12/26 01:37:40;;;;;;;3.13;2.03;;;;;;;13.56;63.40;98688.00;4953073;28;20226;-60
2022/12/26 01:40:08;;;;;;;2.80;2.00;;;;;;;13.52;63.25;98684.06;4949988;28;20260;-60
2022/12/26 01:42:38;;;;;;;2.90;1.83;;;;;;;13.50;63.85;98699.16;4955421;28;20246;-58
2022/12/26 01:45:07;;;;;;;2.90;2.10;;;;;;;13.49;64.23;98696.72;4953749;28;20272;-60
2022/12/26 01:47:41;;;;;;;2.10;1.80;;;;;;;13.44;64.13;98691.97;4953747;28;20226;-60
2022/12/26 01:50:24;;;;;;;2.93;1.97;;;;;;;13.46;63.24;98713.59;4952750;28;20241;-61
2022/12/26 01:52:51;;;;;;;3.87;1.80;;;;;;;13.60;63.31;98704.22;4953073;28;20713;-59
2022/12/26 01:55:21;;;;;;;3.00;2.00;;;;;;;13.59;63.00;98694.72;4955293;28;20781;-60
2022/12/26 01:57:52;;;;;;;2.33;1.60;;;;;;;13.66;61.71;98679.97;4953121;28;20232;-60
2022/12/26 02:00:19;;;;;;;2.83;1.80;;;;;;;13.68;62.83;98706.84;4952813;28;20248;-60
2022/12/26 02:05:35;;;;;;;2.27;2.00;;;;;;;13.53;63.37;98711.94;4950471;28;20822;-59
2022/12/26 02:08:05;;;;;;;2.50;1.87;;;;;;;13.55;63.70;98717.84;4952934;28;20302;-59
2022/12/26 02:10:37;;;;;;;6.47;2.23;;;;;;;13.54;63.55;98721.44;4953454;28;20813;-59
2022/12/26 02:13:05;;;;;;;4.83;2.30;;;;;;;13.58;63.18;98732.44;4952026;28;20233;-59
2022/12/26 02:15:32;;;;;;;4.17;2.30;;;;;;;13.56;63.56;98711.59;4955019;28;20759;-60
2022/12/26 02:17:59;;;;;;;3.33;1.83;;;;;;;13.51;63.46;98710.47;4949471;28;20633;-60
2022/12/26 02:20:29;;;;;;;3.50;1.87;;;;;;;13.48;64.28;98726.56;4956233;28;20230;-60
2022/12/26 02:23:32;;;;;;;3.57;1.80;;;;;;;13.42;63.86;98723.63;4951548;28;20241;-59
2022/12/26 02:26:50;;;;;;;4.60;2.00;;;;;;;13.44;63.96;98710.31;4950901;28;20233;-59
2022/12/26 02:29:46;;;;;;;3.10;2.00;;;;;;;13.38;64.57;98706.53;4949918;28;20277;-60
2022/12/26 02:32:26;;;;;;;3.00;1.83;;;;;;;13.41;64.05;98732.47;4953067;28;20678;-59
2022/12/26 02:35:04;;;;;;;3.07;2.10;;;;;;;13.40;64.27;98735.19;4951428;28;20225;-60
2022/12/26 02:37:48;;;;;;;3.63;2.20;;;;;;;13.35;65.21;98727.03;4956911;28;20717;-60
2022/12/26 02:40:32;;;;;;;4.87;1.70;;;;;;;13.47;63.65;98725.72;4955501;28;20244;-60
2022/12/26 02:43:06;;;;;;;2.70;1.60;;;;;;;13.49;64.26;98729.00;4955825;28;20229;-60
2022/12/26 02:48:43;;;;;;;3.37;2.00;;;;;;;13.51;63.91;98719.16;4954913;28;20351;-60
2022/12/26 03:14:00;;;;;;;4.13;1.87;;;;;;;13.40;65.73;98703.75;4949912;28;20244;-59
2022/12/26 03:19:14;;;;;;;3.17;1.77;;;;;;;13.44;65.64;98694.59;4948341;28;20237;-59
2022/12/26 03:21:44;;;;;;;2.93;1.83;;;;;;;13.40;66.09;98708.97;4948435;28;20541;-59
2022/12/26 03:24:15;;;;;;;2.87;1.70;;;;;;;13.38;66.39;98700.47;4949999;28;20277;-59
2022/12/26 03:26:48;;;;;;;3.07;1.73;;;;;;;13.42;64.78;98705.25;4972428;28;20281;-59
2022/12/26 03:32:05;;;;;;;3.60;1.93;;;;;;;13.33;66.60;98706.22;4946169;28;21215;-59
2022/12/26 03:34:32;;;;;;;2.27;1.60;;;;;;;13.35;65.76;98695.56;4949207;28;20250;-59
2022/12/26 03:37:26;;;;;;;4.13;1.80;;;;;;;13.40;65.64;98701.94;4947869;28;20297;-59
2022/12/26 04:20:19;;;;;;;2.90;2.07;;;;;;;12.97;73.12;98688.25;4952749;28;20247;-60
2022/12/26 04:45:19;;;;;;;3.73;2.07;;;;;;;12.88;75.91;98684.81;4941516;28;20234;-56
2022/12/26 04:50:26;;;;;;;3.27;2.03;;;;;;;12.68;78.77;98702.66;4941909;28;20306;-56
2022/12/26 04:52:58;;;;;;;3.50;2.17;;;;;;;12.63;79.09;98718.84;4939006;28;20229;-55
2022/12/26 04:55:26;;;;;;;4.17;2.40;;;;;;;12.52;81.30;98714.75;4944978;28;20238;-54
2022/12/26 04:57:53;;;;;;;5.97;2.20;;;;;;;12.44;85.43;98734.84;4932584;28;20238;-56
2022/12/26 05:00:23;;;;;;;5.37;2.17;;;;;;;12.26;89.55;98735.78;4944611;28;20634;-55
2022/12/26 05:11:24;;;;;;;3.90;2.30;;;;;;;11.93;94.49;98715.53;4936626;28;20265;-56
2022/12/26 05:13:51;;;;;;;7.50;2.60;;;;;;;11.79;94.38;98714.31;4940117;28;20234;-56
2022/12/26 05:30:06;;;;;;;6.93;2.70;;;;;;;11.45;97.47;98694.22;4940102;28;20710;-53
2022/12/26 05:35:18;;;;;;;4.70;2.30;;;;;;;11.30;99.60;98707.03;4943615;28;20573;-55
2022/12/26 05:37:47;;;;;;;6.07;2.73;;;;;;;11.25;100.00;98714.50;4941011;28;20237;-55
2022/12/26 05:40:13;;;;;;;3.53;2.50;;;;;;;11.22;100.00;98709.59;4943070;28;20233;-56
2022/12/26 05:42:40;;;;;;;6.63;2.80;;;;;;;11.27;97.88;98714.34;4943537;28;20306;-56
2022/12/26 05:45:07;;;;;;;2.77;2.20;;;;;;;11.26;99.88;98705.69;4939291;29;20689;-54
2022/12/26 05:47:35;;;;;;;4.80;2.77;;;;;;;11.26;97.59;98703.09;4943364;28;20239;-56
2022/12/26 05:50:01;;;;;;;3.80;2.50;;;;;;;11.30;95.34;98700.97;4939969;28;20291;-55
2022/12/26 05:52:28;;;;;;;5.13;2.67;;;;;;;11.35;94.78;98702.16;4943437;28;20716;-56
2022/12/26 05:54:55;;;;;;;4.13;2.30;;;;;;;11.40;93.27;98698.28;4938241;28;20237;-56
2022/12/26 05:57:21;;;;;;;5.43;2.57;;;;;;;11.59;91.10;98687.59;4940482;29;20649;-53
2022/12/26 05:59:48;;;;;;;3.90;2.23;;;;;;;11.66;88.12;98693.81;4941679;28;20801;-53
2022/12/26 06:02:14;;;;;;;5.37;2.77;;;;;;;11.62;93.59;98700.38;4942988;28;20248;-54
2022/12/26 06:04:42;;;;;;;5.90;3.23;;;;;;;11.63;93.85;98682.88;4943394;28;20244;-53
2022/12/26 06:07:09;;;;;;;3.47;2.43;;;;;;;11.64;89.91;98674.06;4939811;28;20773;-54
2022/12/26 06:09:35;;;;;;;5.43;2.50;;;;;;;11.80;86.95;98681.13;4940813;28;20264;-53
2022/12/26 06:12:02;;;;;;;4.80;2.27;;;;;;;11.86;86.80;98675.28;4938173;28;21455;-53
2022/12/26 06:14:28;;;;;;;6.57;2.47;;;;;;;11.87;87.70;98676.91;4944649;28;20276;-56
2022/12/26 06:16:55;;;;;;;43.43;23.17;;;;;;;11.93;86.35;98681.50;4941246;28;20240;-56
2022/12/26 06:19:22;;;;;;;4.60;3.30;;;;;;;12.05;85.07;98686.50;4941540;28;20312;-54
2022/12/26 06:21:50;;;;;;;4.47;4.07;;;;;;;12.10;84.18;98690.28;4939721;28;20245;-55
2022/12/26 06:24:16;;;;;;;8.17;6.57;;;;;;;12.16;86.18;98694.06;4941751;28;20251;-55
2022/12/26 06:26:43;;;;;;;7.03;3.53;;;;;;;12.15;85.59;98689.78;4939997;28;20828;-55
2022/12/26 06:29:09;;;;;;;3.13;2.63;;;;;;;12.13;87.81;98689.13;4942244;28;20241;-56
2022/12/26 06:31:36;;;;;;;4.77;3.17;;;;;;;12.10;88.40;98689.44;4944048;28;20242;-56
2022/12/26 06:34:03;;;;;;;4.83;3.50;;;;;;;12.05;88.38;98689.09;4939671;28;20250;-56
2022/12/26 06:36:29;;;;;;;6.27;3.53;;;;;;;12.06;87.34;98686.34;4942246;28;20302;-56
2022/12/26 06:38:59;;;;;;;3.83;2.87;;;;;;;12.10;86.85;98697.31;4940698;28;20233;-53
2022/12/26 06:41:26;;;;;;;7.40;2.80;;;;;;;12.06;88.01;98695.97;4944056;28;20235;-54
2022/12/26 06:43:54;;;;;;;5.97;3.37;;;;;;;12.03;89.85;98697.13;4937821;28;20240;-53
2022/12/26 06:46:22;;;;;;;7.73;2.50;;;;;;;11.96;90.71;98711.78;4940209;28;20323;-53
2022/12/26 06:48:49;;;;;;;4.77;2.67;;;;;;;12.06;86.51;98706.44;4940085;28;20246;-54
2022/12/26 06:51:18;;;;;;;2.43;2.00;;;;;;;12.21;84.01;98714.50;4941518;28;20302;-53
2022/12/26 06:53:45;;;;;;;4.57;2.43;;;;;;;12.34;82.99;98696.53;4940245;28;20233;-53
2022/12/26 06:56:15;;;;;;;4.07;2.50;;;;;;;12.29;84.48;98705.88;4941797;28;20257;-53
2022/12/26 06:58:42;;;;;;;3.70;2.40;;;;;;;12.27;84.11;98715.66;4940416;28;20618;-54
2022/12/26 07:01:11;;;;;;;5.60;2.50;;;;;;;12.25;84.28;98723.66;4936540;28;20648;-53
2022/12/26 07:03:38;;;;;;;7.77;2.57;;;;;;;12.18;86.27;98720.06;4942026;28;20289;-53
2022/12/26 07:06:06;;;;;;;3.57;2.50;;;;;;;12.21;85.06;98722.34;4939205;28;20237;-53
2022/12/26 07:08:33;;;;;;;5.23;2.37;;;;;;;12.23;82.58;98716.00;4937275;28;20264;-54
2022/12/26 07:11:00;;;;;;;5.23;2.87;;;;;;;12.24;84.04;98704.53;4937900;28;20612;-53
2022/12/26 07:13:28;;;;;;;4.33;2.60;;;;;;;12.17;85.64;98703.53;4941262;28;20240;-55
2022/12/26 07:15:55;;;;;;;4.73;2.30;;;;;;;12.13;89.02;98693.56;4937427;28;20250;-55
2022/12/26 07:18:21;;;;;;;5.37;2.90;;;;;;;11.98;88.75;98693.31;4943465;28;20232;-54
2022/12/26 07:20:48;;;;;;;4.43;2.80;;;;;;;11.90;89.90;98694.91;4941490;28;20238;-56
2022/12/26 07:23:15;;;;;;;4.17;3.07;;;;;;;11.84;89.72;98698.16;4941640;28;20263;-55
2022/12/26 07:25:41;;;;;;;5.80;3.60;;;;;;;11.80;91.62;98694.22;4946156;28;20233;-55
2022/12/26 07:28:08;;;;;;;5.40;3.60;;;;;;;11.73;93.03;98695.81;4941975;28;20233;-56
2022/12/26 07:30:36;;;;;;;5.00;3.23;;;;;;;11.70;94.22;98711.81;4944226;28;20232;-55
2022/12/26 07:33:03;;;;;;;4.90;2.93;;;;;;;11.56;97.23;98721.06;4943045;28;20721;-55
2022/12/26 07:35:30;;;;;;;6.90;3.53;;;;;;;11.52;98.00;98723.19;4942632;28;20238;-55
2022/12/26 07:37:57;;;;;;;8.20;5.27;;;;;;;11.40;100.00;98711.34;4939148;28;20698;-56
2022/12/26 07:40:23;;;;;;;8.33;3.73;;;;;;;11.32;100.00;98720.78;4944991;28;20244;-55
2022/12/26 07:42:52;;;;;;;4.47;3.27;;;;;;;11.24;100.00;98712.88;4941297;28;20295;-55
2022/12/26 07:45:19;;;;;;;6.20;3.63;;;;;;;11.24;100.00;98715.50;4944359;28;20238;-56
2022/12/26 07:47:47;;;;;;;5.70;4.07;;;;;;;11.18;100.00;98734.38;4944353;28;20291;-56
2022/12/26 07:50:13;;;;;;;5.77;4.10;;;;;;;11.08;100.00;98730.06;4945338;28;21151;-54
2022/12/26 07:52:40;;;;;;;5.93;3.83;;;;;;;11.04;100.00;98738.38;4945461;28;20634;-55
2022/12/26 07:55:07;;;;;;;6.30;4.37;;;;;;;11.04;100.00;98738.38;4940191;28;20241;-54
2022/12/26 07:57:34;;;;;;;6.03;3.93;;;;;;;11.04;100.00;98749.63;4944192;28;20244;-54
2022/12/26 08:00:00;;;;;;;5.80;3.70;;;;;;;11.01;100.00;98749.94;4943350;28;20229;-55
2022/12/26 08:02:27;;;;;;;7.43;3.90;;;;;;;10.97;100.00;98769.47;4945700;28;20237;-56
2022/12/26 08:04:54;;;;;;;5.90;3.07;;;;;;;11.02;98.92;98772.47;4941734;28;20234;-54
2022/12/26 08:07:21;;;;;;;8.37;3.67;;;;;;;11.04;100.00;98778.34;4941004;29;20245;-55
2022/12/26 08:09:48;;;;;;;7.60;4.17;;;;;;;10.93;100.00;98789.03;4943786;28;20240;-54
2022/12/26 08:12:14;;;;;;;6.00;3.83;;;;;;;10.92;100.00;98803.06;4944137;28;20249;-55
2022/12/26 08:14:41;;;;;;;5.00;4.10;;;;;;;10.96;100.00;98799.19;4943975;28;20570;-55
2022/12/26 08:17:08;;;;;;;7.77;4.23;;;;;;;10.88;100.00;98806.94;4941005;28;20240;-53
2022/12/26 08:19:34;;;;;;;7.83;4.33;;;;;;;10.82;100.00;98824.03;4944441;28;20240;-56
2022/12/26 08:22:02;;;;;;;6.23;3.67;;;;;;;10.71;100.00;98832.88;4940929;28;20245;-55
2022/12/26 08:24:29;;;;;;;8.13;3.90;;;;;;;10.68;100.00;98835.78;4943031;29;20718;-55
2022/12/26 08:26:56;;;;;;;6.50;4.20;;;;;;;10.58;100.00;98841.06;4942082;28;20291;-53
2022/12/26 08:29:24;;;;;;;7.03;4.23;;;;;;;10.51;100.00;98834.78;4943372;28;20302;-55
2022/12/26 08:31:51;;;;;;;5.90;3.87;;;;;;;10.44;100.00;98834.53;4941820;28;20335;-53
2022/12/26 08:34:18;;;;;;;7.10;4.70;;;;;;;10.51;100.00;98860.88;4943254;28;20279;-54
2022/12/26 08:36:44;;;;;;;7.63;4.77;;;;;;;10.53;100.00;98858.94;4940750;28;20295;-55
2022/12/26 08:39:12;;;;;;;6.03;3.77;;;;;;;10.57;100.00;98856.88;4942396;28;20234;-53
2022/12/26 08:41:39;;;;;;;6.50;4.33;;;;;;;10.58;100.00;98866.34;4945122;28;20243;-53
2022/12/26 08:44:05;;;;;;;6.43;4.13;;;;;;;10.55;100.00;98864.84;4940803;28;20696;-55
2022/12/26 08:46:32;;;;;;;7.43;3.97;;;;;;;10.59;100.00;98860.16;4941062;28;20222;-54
2022/12/26 08:48:58;;;;;;;8.60;3.80;;;;;;;10.53;100.00;98882.44;4942239;28;20318;-56
2022/12/26 08:51:25;;;;;;;5.73;4.00;;;;;;;10.55;100.00;98897.97;4944306;28;20255;-56
2022/12/26 08:53:54;;;;;;;8.97;4.50;;;;;;;10.54;100.00;98910.19;4939770;28;20234;-54
2022/12/26 08:56:27;;;;;;;9.20;5.23;;;;;;;10.50;100.00;98915.84;4940126;28;20523;-54
2022/12/26 08:58:54;;;;;;;9.07;5.30;;;;;;;10.41;100.00;98914.91;4942542;28;20227;-55
2022/12/26 09:01:23;;;;;;;8.27;4.77;;;;;;;10.33;100.00;98908.56;4943478;28;20250;-56
2022/12/26 09:03:52;;;;;;;9.50;5.10;;;;;;;10.29;100.00;98915.03;4941405;28;20636;-56
2022/12/26 09:06:19;;;;;;;9.63;5.30;;;;;;;10.25;100.00;98907.66;4942035;28;20718;-56
2022/12/26 09:08:46;;;;;;;10.13;5.43;;;;;;;10.17;100.00;98900.50;4941211;28;20235;-55
2022/12/26 09:11:14;;;;;;;7.20;4.97;;;;;;;10.17;100.00;98903.13;4943665;28;20303;-55
2022/12/26 09:13:43;;;;;;;8.70;5.17;;;;;;;10.09;100.00;98903.00;4943517;28;20239;-55
2022/12/26 09:16:12;;;;;;;6.27;4.20;;;;;;;10.09;100.00;98913.44;4941177;28;20513;-56
2022/12/26 09:18:39;;;;;;;7.57;4.70;;;;;;;10.09;100.00;98932.53;4943060;28;20294;-54
2022/12/26 09:21:07;;;;;;;8.83;5.70;;;;;;;10.11;100.00;98945.41;4939581;28;20235;-54
2022/12/26 09:23:34;;;;;;;7.60;5.60;;;;;;;10.08;100.00;98943.91;4945199;28;20719;-56
2022/12/26 09:26:06;;;;;;;8.70;4.90;;;;;;;10.10;100.00;98943.78;4937124;28;20223;-54
2022/12/26 09:28:32;;;;;;;9.20;5.17;;;;;;;10.08;100.00;98961.34;4944227;28;20235;-54
2022/12/26 09:31:01;;;;;;;9.30;5.27;;;;;;;10.12;100.00;98970.53;4938743;28;20247;-53
2022/12/26 09:33:28;;;;;;;8.07;5.47;;;;;;;10.04;100.00;98979.91;4941955;28;20232;-54
2022/12/26 09:35:55;;;;;;;9.53;6.73;;;;;;;9.98;100.00;98974.41;4940950;28;20248;-54
2022/12/26 09:38:21;;;;;;;7.50;4.97;;;;;;;10.02;100.00;98970.56;4943122;28;20700;-55
2022/12/26 09:41:04;;;;;;;9.10;5.03;;;;;;;10.04;100.00;98969.47;4940231;28;20231;-54
2022/12/26 09:43:46;;;;;;;7.20;5.43;;;;;;;10.03;100.00;98969.59;4941724;28;20243;-55
2022/12/26 09:46:24;;;;;;;9.80;6.37;;;;;;;10.10;100.00;98959.41;4940390;28;20588;-55
2022/12/26 09:48:57;;;;;;;7.70;5.43;;;;;;;10.12;100.00;98955.72;4943309;28;20231;-55
2022/12/26 09:51:25;;;;;;;7.00;4.30;;;;;;;10.16;100.00;98951.03;4942490;28;20246;-53
2022/12/26 09:53:54;;;;;;;7.40;4.50;;;;;;;10.18;100.00;98949.94;4938302;28;20701;-54
2022/12/26 09:56:23;;;;;;;6.30;4.50;;;;;;;10.15;100.00;98952.84;4944486;28;20644;-56
2022/12/26 09:58:54;;;;;;;8.63;5.10;;;;;;;10.10;100.00;98944.59;4938860;28;20239;-55
2022/12/26 10:01:26;;;;;;;8.33;4.50;;;;;;;10.03;100.00;98938.31;4942106;28;20248;-55
2022/12/26 10:03:55;;;;;;;6.47;3.70;;;;;;;10.06;100.00;98961.50;4942140;28;20238;-55
2022/12/26 10:06:23;;;;;;;7.50;3.77;;;;;;;10.09;100.00;98979.47;4944967;28;20243;-56
2022/12/26 10:09:32;;;;;;;7.53;3.57;;;;;;;10.10;100.00;98983.72;4941240;28;20227;-56
2022/12/26 10:12:14;;;;;;;5.63;3.20;;;;;;;10.07;100.00;98996.25;4923923;28;20238;-53
2022/12/26 10:14:49;;;;;;;2.53;1.90;;;;;;;10.10;100.00;98983.72;4939176;28;20321;-54
2022/12/26 10:17:23;;;;;;;4.70;2.47;;;;;;;10.15;100.00;98981.53;4939045;28;20238;-53
2022/12/26 10:20:07;;;;;;;5.33;4.00;;;;;;;10.09;100.00;98979.47;4939246;28;20231;-54
2022/12/26 10:23:02;;;;;;;2.80;2.20;;;;;;;10.12;100.00;98973.97;4940414;28;20375;-56
2022/12/26 10:25:38;;;;;;;2.77;2.30;;;;;;;10.12;100.00;98979.19;4940220;28;20237;-53
2022/12/26 10:28:10;;;;;;;3.67;2.20;;;;;;;10.11;100.00;98969.72;4935665;28;20285;-56
2022/12/26 10:30:41;;;;;;;3.87;2.23;;;;;;;10.07;100.00;98984.00;4944384;28;20643;-54
2022/12/26 10:33:17;;;;;;;3.20;2.20;;;;;;;9.98;100.00;98977.84;4937575;28;20658;-55
2022/12/26 10:35:45;;;;;;;3.03;2.07;;;;;;;9.97;100.00;98965.78;4940420;28;20230;-54
2022/12/26 10:38:20;;;;;;;2.40;1.70;;;;;;;9.98;100.00;98971.78;4941924;28;20247;-54
2022/12/26 10:40:52;;;;;;;2.50;1.00;;;;;;;10.03;100.00;98974.81;4933890;28;20298;-55
2022/12/26 10:43:27;;;;;;;1.73;1.27;;;;;;;10.03;100.00;98977.41;4939105;28;20239;-56
2022/12/26 10:46:13;;;;;;;1.40;0.90;;;;;;;10.04;100.00;98976.47;4989502;23;20242;-58
2022/12/26 10:48:41;;;;;;;1.43;1.20;;;;;;;10.02;100.00;98973.16;4978308;28;20407;-60
2022/12/26 10:51:08;;;;;;;0.80;0.70;;;;;;;10.01;100.00;98966.31;4974097;28;20238;-58
2022/12/26 10:53:40;;;;;;;1.63;0.90;;;;;;;10.01;100.00;98961.94;4970100;28;20230;-59
2022/12/26 10:56:08;;;;;;;1.50;0.80;;;;;;;10.00;100.00;98949.00;4965377;28;20301;-59
2022/12/26 10:58:37;;;;;;;0.93;0.80;;;;;;;10.01;100.00;98969.75;4967521;28;20234;-59
2022/12/26 11:01:35;;;;;;;4.00;1.00;;;;;;;10.02;100.00;98957.53;4964590;28;20643;-59
2022/12/26 11:04:05;;;;;;;1.00;0.70;;;;;;;10.01;100.00;98955.88;4971587;28;20227;-59
2022/12/26 11:06:36;;;;;;;0.93;0.63;;;;;;;10.02;100.00;98945.31;4971045;28;20239;-58
2022/12/26 11:09:04;;;;;;;1.47;0.80;;;;;;;9.98;100.00;98963.97;4970703;28;20271;-61
2022/12/26 11:11:45;;;;;;;4.90;3.10;;;;;;;9.96;100.00;98973.72;4964190;28;20237;-58
2022/12/26 11:14:34;;;;;;;154.53;82.83;;;;;;;9.96;100.00;98977.16;4969299;28;20313;-60
2022/12/26 11:17:03;;;;;;;6.27;2.30;;;;;;;9.85;100.00;98992.94;4966057;28;20243;-59
2022/12/26 11:19:34;;;;;;;16.63;10.07;;;;;;;9.91;100.00;98979.38;4967509;28;20784;-59
2022/12/26 11:22:24;;;;;;;13.73;8.13;;;;;;;9.94;100.00;98980.84;4964606;28;20235;-59
2022/12/26 11:25:12;;;;;;;2.30;1.70;;;;;;;9.96;100.00;98971.94;4964105;28;20243;-58
2022/12/26 11:27:41;;;;;;;1.50;1.33;;;;;;;9.96;100.00;98977.16;4962330;28;20231;-60
2022/12/26 11:30:16;;;;;;;1.37;0.70;;;;;;;9.98;100.00;98970.03;4962702;28;20264;-59
2022/12/26 11:32:44;;;;;;;1.27;0.70;;;;;;;9.99;100.00;98956.03;4967831;28;20260;-59
2022/12/26 11:35:18;;;;;;;1.67;0.83;;;;;;;10.02;100.00;98973.16;4972856;28;20245;-58
2022/12/26 11:37:48;;;;;;;1.97;0.60;;;;;;;10.01;100.00;98969.75;4972861;28;20237;-59
2022/12/26 11:40:19;;;;;;;1.23;0.80;;;;;;;10.03;100.00;98978.25;4964776;28;20266;-59
2022/12/26 11:42:50;;;;;;;0.90;0.80;;;;;;;10.12;100.00;98965.31;4964700;28;20265;-59
2022/12/26 11:45:23;;;;;;;0.60;0.60;;;;;;;10.16;100.00;98969.28;4966919;28;20237;-58
2022/12/26 11:47:50;;;;;;;0.87;0.50;;;;;;;10.12;100.00;98958.34;4963178;28;20235;-58
2022/12/26 11:50:21;;;;;;;0.83;0.63;;;;;;;10.12;100.00;98960.94;4969393;28;20744;-59
2022/12/26 11:52:52;;;;;;;1.53;1.20;;;;;;;10.04;100.00;98961.66;4966419;28;20234;-59
2022/12/26 11:55:29;;;;;;;3.80;1.30;;;;;;;10.05;100.00;98962.47;4969234;28;20561;-58
2022/12/26 11:57:57;;;;;;;1.43;0.90;;;;;;;10.01;100.00;98961.09;4966000;28;20227;-59
2022/12/26 12:00:26;;;;;;;1.10;0.50;;;;;;;10.09;99.09;98961.22;4966699;28;20711;-60
2022/12/26 12:02:52;;;;;;;1.33;0.63;;;;;;;10.16;99.78;98957.09;4970648;28;20231;-60
2022/12/26 12:05:35;;;;;;;1.07;0.70;;;;;;;10.19;98.53;98977.69;4973348;28;20242;-60
2022/12/26 12:08:15;;;;;;;1.20;0.67;;;;;;;10.20;99.15;98970.66;4962160;28;20233;-58
2022/12/26 12:10:57;;;;;;;0.90;0.60;;;;;;;10.27;96.84;98958.72;4973106;28;20726;-60
2022/12/26 12:13:36;;;;;;;1.70;1.20;;;;;;;10.36;98.42;98951.84;4964689;28;20239;-59
2022/12/26 12:16:11;;;;;;;1.03;0.77;;;;;;;10.25;98.69;98952.00;4971617;28;21393;-59
2022/12/26 12:18:50;;;;;;;0.97;0.80;;;;;;;10.35;96.01;98952.81;4966020;28;20245;-58
2022/12/26 12:21:31;;;;;;;1.33;0.83;;;;;;;10.27;98.54;98958.72;4969973;28;20686;-60
2022/12/26 12:24:21;;;;;;;3.17;0.90;;;;;;;10.32;95.89;98942.66;4966771;28;20233;-59
2022/12/26 12:26:56;;;;;;;1.00;0.90;;;;;;;10.33;96.50;98950.31;4962943;28;20301;-58
2022/12/26 12:29:35;;;;;;;0.90;0.70;;;;;;;10.43;95.36;98944.28;4970477;28;20226;-60
2022/12/26 12:32:11;;;;;;;0.60;0.50;;;;;;;10.42;96.77;98948.69;4965505;28;20226;-59
2022/12/26 12:34:56;;;;;;;1.83;0.70;;;;;;;10.42;94.95;98946.09;4967110;28;20289;-59
2022/12/26 12:37:32;;;;;;;10.47;6.10;;;;;;;10.47;94.20;98954.31;4963308;28;20242;-61
2022/12/26 12:40:04;;;;;;;3.53;2.57;;;;;;;10.50;95.14;98957.59;4965426;28;20642;-60
2022/12/26 12:42:45;;;;;;;3.40;1.60;;;;;;;10.56;93.72;98946.59;4963895;28;20230;-59
2022/12/26 12:45:32;;;;;;;1.83;0.80;;;;;;;10.60;90.63;98940.94;4964271;28;20310;-58
2022/12/26 12:48:20;;;;;;;1.33;0.97;;;;;;;10.64;93.60;98959.72;4967655;28;20706;-60
2022/12/26 12:50:55;;;;;;;1.20;0.80;;;;;;;10.61;93.93;98954.78;4963448;28;20231;-59
2022/12/26 12:53:37;;;;;;;1.27;0.80;;;;;;;10.65;94.86;98955.34;4967981;28;20306;-58
2022/12/26 12:56:19;;;;;;;1.27;0.80;;;;;;;10.67;93.59;98956.03;4968327;28;20248;-59
2022/12/26 12:58:54;;;;;;;1.20;0.70;;;;;;;10.81;90.71;98941.66;4955992;28;20231;-60
2022/12/26 13:01:25;;;;;;;1.20;0.83;;;;;;;10.70;93.61;98927.00;4971943;28;20244;-59
2022/12/26 13:03:57;;;;;;;1.30;0.70;;;;;;;10.86;91.29;98936.84;4963580;28;20223;-59
2022/12/26 13:06:29;;;;;;;1.17;0.90;;;;;;;10.81;93.36;98939.06;4963113;28;20246;-59
2022/12/26 13:09:02;;;;;;;1.60;1.10;;;;;;;10.84;93.42;98917.88;4964331;28;20233;-58
2022/12/26 13:11:34;;;;;;;2.30;0.80;;;;;;;10.89;93.22;98937.38;4966397;28;20239;-58
2022/12/26 13:14:05;;;;;;;1.20;0.70;;;;;;;10.82;94.21;98938.09;4961619;28;20242;-59
2022/12/26 13:16:42;;;;;;;1.30;0.87;;;;;;;10.85;92.58;98938.63;4961902;28;20282;-60
2022/12/26 13:19:17;;;;;;;1.73;1.00;;;;;;;10.86;93.51;98934.22;4960779;28;20377;-58
2022/12/26 13:21:45;;;;;;;1.63;1.17;;;;;;;10.79;94.16;98928.75;4967226;28;20634;-58
2022/12/26 13:24:23;;;;;;;1.23;0.90;;;;;;;10.76;93.55;98921.22;4968739;28;20245;-59
2022/12/26 13:26:57;;;;;;;2.33;1.50;;;;;;;10.71;94.38;98921.63;4964708;28;20599;-58
2022/12/26 13:29:34;;;;;;;2.40;2.00;;;;;;;10.71;96.22;98923.44;4966568;28;20321;-60
2022/12/26 13:32:03;;;;;;;3.73;1.20;;;;;;;10.63;97.54;98921.53;4971837;28;20678;-60
2022/12/26 13:34:30;;;;;;;2.00;1.07;;;;;;;10.60;98.96;98906.19;4968457;28;20723;-59
2022/12/26 13:36:59;;;;;;;2.23;1.60;;;;;;;10.56;98.28;98910.06;4964759;28;20261;-59
2022/12/26 13:39:36;;;;;;;2.23;0.97;;;;;;;10.45;100.00;98911.88;4966136;28;20228;-58
2022/12/26 13:45:46;;;;;;;1.43;1.20;;;;;;;10.31;100.00;98904.47;4932622;28;20240;-59
2022/12/26 13:48:55;;;;;;;0.97;0.80;;;;;;;10.37;100.00;98897.84;4968702;28;20237;-59
2022/12/26 13:51:52;;;;;;;1.40;0.87;;;;;;;10.41;98.14;98892.25;4962171;28;20322;-60
2022/12/26 13:54:20;;;;;;;2.37;1.50;;;;;;;10.41;100.00;98894.84;4962822;28;20231;-58
2022/12/26 13:57:38;;;;;;;1.40;1.00;;;;;;;10.34;100.00;98893.75;4960458;28;20263;-60